createdAt,value
2023-12-09T00:00:36.111Z,11.70
2023-12-09T00:03:24.211Z,12.40
2023-12-09T00:05:52.474Z,13.30
2023-12-09T00:08:20.657Z,12.10
2023-12-09T00:10:48.794Z,11.10
2023-12-09T00:13:17.934Z,11.20
2023-12-09T00:15:45.961Z,10.50
2023-12-09T00:18:15.518Z,10.50
2023-12-09T00:20:43.665Z,10.50
2023-12-09T00:23:11.791Z,11.80
2023-12-09T00:25:40.278Z,10.20
2023-12-09T00:28:08.280Z,11.30
2023-12-09T00:30:36.376Z,11.90
2023-12-09T00:33:05.389Z,12.70
2023-12-09T00:35:33.662Z,11.50
2023-12-09T00:38:01.792Z,11.80
2023-12-09T00:40:29.843Z,11.50
2023-12-09T00:42:57.799Z,10.50
2023-12-09T00:45:26.598Z,12.10
2023-12-09T00:47:55.652Z,11.60
2023-12-09T00:50:23.902Z,11.60
2023-12-09T00:52:51.890Z,10.40
2023-12-09T00:55:20.063Z,11.50
2023-12-09T00:57:48.350Z,12.40
2023-12-09T01:00:16.772Z,12.80
2023-12-09T01:02:44.987Z,14.20
2023-12-09T01:05:13.019Z,12.50
2023-12-09T01:07:41.271Z,13.80
2023-12-09T01:10:09.350Z,14.10
2023-12-09T01:12:40.713Z,11.50
2023-12-09T01:15:09.583Z,10.60
2023-12-09T01:17:37.667Z,10.60
2023-12-09T01:20:06.359Z,12.40
2023-12-09T01:22:34.483Z,13.60
2023-12-09T01:25:02.555Z,11.70
2023-12-09T01:27:30.700Z,10.60
2023-12-09T01:29:58.930Z,11.60
2023-12-09T01:32:27.171Z,12.20
2023-12-09T01:34:57.179Z,12.20
2023-12-09T01:37:25.161Z,11.10
2023-12-09T01:39:53.283Z,13.40
2023-12-09T01:42:21.660Z,12.20
2023-12-09T01:44:49.750Z,14.70
2023-12-09T01:47:18.079Z,15.10
2023-12-09T01:49:46.374Z,13.30
2023-12-09T01:52:14.724Z,14.20
2023-12-09T01:54:42.724Z,12.90
2023-12-09T01:57:10.966Z,13.90
2023-12-09T01:59:39.105Z,13.40
2023-12-09T02:02:07.259Z,13.40
2023-12-09T02:04:35.626Z,13.20
2023-12-09T02:07:04.089Z,15.10
2023-12-09T02:09:33.411Z,15.10
2023-12-09T02:12:15.638Z,13.50
2023-12-09T02:14:56.524Z,13.30
2023-12-09T02:17:30.804Z,14.30
2023-12-09T02:20:00.288Z,14.00
2023-12-09T02:22:28.545Z,12.10
2023-12-09T02:24:57.399Z,11.40
2023-12-09T02:27:29.026Z,13.00
2023-12-09T02:30:12.601Z,14.30
2023-12-09T02:32:40.866Z,13.10
2023-12-09T02:35:09.853Z,12.80
2023-12-09T02:37:38.616Z,14.50
2023-12-09T02:40:11.148Z,14.90
2023-12-09T02:42:39.544Z,14.50
2023-12-09T02:45:08.390Z,12.60
2023-12-09T02:47:36.648Z,13.00
2023-12-09T02:50:05.319Z,12.00
2023-12-09T02:52:33.293Z,11.80
2023-12-09T02:55:01.424Z,14.50
2023-12-09T02:57:29.591Z,12.60
2023-12-09T02:59:57.631Z,13.50
2023-12-09T03:02:25.987Z,11.10
2023-12-09T03:04:54.438Z,13.60
2023-12-09T03:07:22.582Z,11.40
2023-12-09T03:09:50.915Z,12.30
2023-12-09T03:12:19.169Z,13.00
2023-12-09T03:14:47.202Z,11.40
2023-12-09T03:17:15.178Z,12.70
2023-12-09T03:19:43.426Z,11.70
2023-12-09T03:22:11.557Z,11.70
2023-12-09T03:24:39.632Z,12.00
2023-12-09T03:27:07.847Z,13.40
2023-12-09T03:29:37.303Z,12.10
2023-12-09T03:32:05.523Z,10.30
2023-12-09T03:34:33.623Z,8.90
2023-12-09T03:37:01.734Z,9.10
2023-12-09T03:39:29.892Z,9.20
2023-12-09T03:41:57.992Z,9.30
2023-12-09T03:44:26.231Z,7.20
2023-12-09T03:46:54.375Z,6.80
2023-12-09T03:49:22.664Z,6.40
2023-12-09T03:51:50.845Z,4.60
2023-12-09T03:54:18.948Z,5.50
2023-12-09T03:56:47.007Z,5.40
2023-12-09T03:59:15.066Z,5.20
2023-12-09T04:01:49.998Z,5.00
2023-12-09T04:04:18.147Z,5.80
2023-12-09T04:06:46.275Z,5.40
2023-12-09T04:09:15.090Z,5.90
2023-12-09T04:11:44.645Z,6.70
2023-12-09T04:14:12.724Z,5.60
2023-12-09T04:16:43.795Z,4.70
2023-12-09T04:19:11.914Z,6.20
2023-12-09T04:21:40.156Z,5.30
2023-12-09T04:24:08.446Z,5.80
2023-12-09T04:26:36.503Z,4.90
2023-12-09T04:29:08.166Z,4.90
2023-12-09T04:31:36.321Z,4.70
2023-12-09T04:34:04.440Z,4.80
2023-12-09T04:36:32.575Z,5.60
2023-12-09T04:39:00.858Z,5.10
2023-12-09T04:41:29.098Z,6.00
2023-12-09T04:43:57.216Z,5.50
2023-12-09T04:46:25.271Z,5.90
2023-12-09T04:48:53.540Z,5.40
2023-12-09T04:51:21.994Z,5.90
2023-12-09T04:53:50.265Z,6.20
2023-12-09T04:56:19.242Z,6.60
2023-12-09T04:58:47.460Z,5.50
2023-12-09T05:01:16.340Z,5.20
2023-12-09T05:03:44.640Z,6.50
2023-12-09T05:06:12.962Z,5.90
2023-12-09T05:08:43.626Z,6.60
2023-12-09T05:11:11.899Z,6.30
2023-12-09T05:13:40.370Z,7.60
2023-12-09T05:16:08.573Z,7.10
2023-12-09T05:18:36.770Z,6.00
2023-12-09T05:21:06.569Z,6.40
2023-12-09T05:23:36.031Z,6.40
2023-12-09T05:26:04.221Z,6.70
2023-12-09T05:28:32.261Z,6.30
2023-12-09T05:31:00.322Z,6.10
2023-12-09T05:33:28.549Z,6.80
2023-12-09T05:35:56.786Z,6.80
2023-12-09T05:38:25.142Z,6.80
2023-12-09T05:40:53.100Z,6.50
2023-12-09T05:43:21.183Z,6.50
2023-12-09T05:45:49.284Z,6.40
2023-12-09T05:48:17.495Z,7.30
2023-12-09T05:50:46.033Z,7.10
2023-12-09T05:53:14.072Z,7.30
2023-12-09T05:55:43.135Z,8.00
2023-12-09T05:58:11.257Z,9.40
2023-12-09T06:00:39.578Z,8.40
2023-12-09T06:03:07.665Z,7.70
2023-12-09T06:05:35.925Z,7.10
2023-12-09T06:08:04.400Z,7.20
2023-12-09T06:10:32.491Z,8.30
2023-12-09T06:13:00.623Z,8.80
2023-12-09T06:15:28.696Z,7.80
2023-12-09T06:17:56.995Z,7.10
2023-12-09T06:20:25.309Z,7.40
2023-12-09T06:22:53.310Z,6.90
2023-12-09T06:25:21.274Z,7.30
2023-12-09T06:27:49.497Z,7.80
2023-12-09T06:30:17.579Z,6.90
2023-12-09T06:32:46.203Z,8.20
2023-12-09T06:35:14.570Z,8.50
2023-12-09T06:37:42.758Z,7.60
2023-12-09T06:40:11.665Z,7.30
2023-12-09T06:42:39.848Z,7.10
2023-12-09T06:45:08.559Z,6.80
2023-12-09T06:47:36.934Z,6.70
2023-12-09T06:50:05.901Z,6.90
2023-12-09T06:52:34.002Z,6.90
2023-12-09T06:55:02.528Z,6.90
2023-12-09T06:57:31.754Z,7.00
2023-12-09T07:00:00.559Z,6.70
2023-12-09T07:02:41.037Z,7.60
2023-12-09T07:05:50.431Z,7.60
2023-12-09T07:08:24.721Z,7.20
2023-12-09T07:11:02.573Z,5.80
2023-12-09T07:13:33.259Z,6.30
2023-12-09T07:16:01.472Z,7.50
2023-12-09T07:18:29.806Z,7.00
2023-12-09T07:20:58.073Z,6.60
2023-12-09T07:23:26.904Z,7.00
2023-12-09T07:25:56.556Z,7.10
2023-12-09T07:28:24.794Z,7.00
2023-12-09T07:30:53.952Z,7.90
2023-12-09T07:33:22.454Z,7.70
2023-12-09T07:35:50.821Z,6.70
2023-12-09T07:38:21.414Z,8.20
2023-12-09T07:40:49.501Z,7.70
2023-12-09T07:43:17.658Z,8.00
2023-12-09T07:45:45.904Z,6.70
2023-12-09T07:48:14.097Z,5.80
2023-12-09T07:50:42.398Z,5.80
2023-12-09T07:53:10.478Z,5.80
2023-12-09T07:55:38.549Z,15.10
2023-12-09T07:58:06.970Z,5.30
2023-12-09T08:00:35.774Z,4.70
2023-12-09T08:03:06.011Z,4.10
2023-12-09T08:05:36.420Z,4.50
2023-12-09T08:08:05.372Z,5.10
2023-12-09T08:10:33.520Z,4.80
2023-12-09T08:13:04.142Z,6.20
2023-12-09T08:15:32.199Z,5.40
2023-12-09T08:18:00.507Z,5.90
2023-12-09T08:20:28.613Z,7.10
2023-12-09T08:22:56.617Z,7.20
2023-12-09T08:25:24.753Z,6.70
2023-12-09T08:27:52.802Z,7.10
2023-12-09T08:30:20.930Z,6.90
2023-12-09T08:32:49.282Z,5.20
2023-12-09T08:35:17.546Z,4.00
2023-12-09T08:37:45.571Z,4.40
2023-12-09T08:40:14.014Z,4.40
2023-12-09T08:42:46.184Z,3.80
2023-12-09T08:45:19.009Z,3.80
2023-12-09T08:47:47.828Z,3.90
2023-12-09T08:52:47.631Z,3.80
2023-12-09T08:55:16.937Z,4.40
2023-12-09T08:57:45.097Z,3.90
2023-12-09T09:00:15.681Z,4.00
2023-12-09T09:02:44.086Z,4.00
2023-12-09T09:05:12.105Z,4.10
2023-12-09T09:07:42.218Z,4.20
2023-12-09T09:10:10.434Z,4.00
2023-12-09T09:12:38.631Z,4.00
2023-12-09T09:15:09.208Z,4.10
2023-12-09T09:17:38.050Z,4.00
2023-12-09T09:20:07.222Z,3.50
2023-12-09T09:22:35.481Z,4.00
2023-12-09T09:25:03.978Z,4.70
2023-12-09T09:27:32.290Z,3.80
2023-12-09T09:30:00.680Z,4.40
2023-12-09T09:32:29.203Z,4.20
2023-12-09T09:34:57.703Z,3.90
2023-12-09T09:37:26.589Z,9.30
2023-12-09T09:39:55.310Z,3.80
2023-12-09T09:42:29.095Z,4.40
2023-12-09T09:45:13.577Z,4.20
2023-12-09T09:47:41.737Z,4.40
2023-12-09T09:50:11.574Z,3.80
2023-12-09T09:52:41.681Z,4.50
2023-12-09T09:55:09.994Z,5.10
2023-12-09T09:57:38.701Z,4.80
2023-12-09T10:00:14.619Z,4.20
2023-12-09T10:02:55.350Z,4.90
2023-12-09T10:05:25.282Z,3.90
2023-12-09T10:07:54.844Z,4.00
2023-12-09T10:10:23.577Z,4.80
2023-12-09T10:12:51.937Z,4.50
2023-12-09T10:15:20.235Z,4.50
2023-12-09T10:17:48.372Z,4.90
2023-12-09T10:20:16.762Z,4.50
2023-12-09T10:22:44.872Z,5.10
2023-12-09T10:25:13.056Z,4.30
2023-12-09T10:27:41.648Z,4.60
2023-12-09T10:30:10.656Z,9.60
2023-12-09T10:32:39.317Z,4.00
2023-12-09T10:35:08.345Z,3.80
2023-12-09T10:37:36.635Z,5.30
2023-12-09T10:40:05.350Z,6.60
2023-12-09T10:42:33.796Z,4.60
2023-12-09T10:45:12.674Z,4.40
2023-12-09T10:47:41.488Z,5.20
2023-12-09T10:50:10.008Z,4.00
2023-12-09T10:52:39.352Z,4.40
2023-12-09T10:55:08.157Z,5.60
2023-12-09T10:57:37.250Z,5.20
2023-12-09T11:00:12.532Z,11.10
2023-12-09T11:02:41.032Z,4.70
2023-12-09T11:05:11.051Z,6.00
2023-12-09T11:07:39.318Z,6.00
2023-12-09T11:10:08.131Z,4.80
2023-12-09T11:12:37.474Z,5.90
2023-12-09T11:15:15.163Z,5.30
2023-12-09T11:17:48.142Z,5.80
2023-12-09T11:20:22.634Z,4.70
2023-12-09T11:22:50.918Z,4.50
2023-12-09T11:25:23.827Z,4.70
2023-12-09T11:27:55.872Z,5.80
2023-12-09T11:30:57.003Z,5.30
2023-12-09T11:33:25.029Z,5.00
2023-12-09T11:35:53.200Z,5.10
2023-12-09T11:38:21.235Z,6.20
2023-12-09T11:40:49.268Z,4.80
2023-12-09T11:43:17.429Z,4.20
2023-12-09T11:45:45.549Z,6.00
2023-12-09T11:48:13.896Z,5.30
2023-12-09T11:50:55.908Z,5.90
2023-12-09T11:53:24.319Z,4.80
2023-12-09T11:55:52.532Z,5.40
2023-12-09T11:58:20.788Z,6.10
2023-12-09T12:00:48.858Z,6.10
2023-12-09T12:03:30.175Z,5.40
2023-12-09T12:05:58.370Z,6.00
2023-12-09T12:08:40.992Z,5.40
2023-12-09T12:11:09.669Z,5.30
2023-12-09T12:13:37.893Z,5.40
2023-12-09T12:16:06.643Z,5.60
2023-12-09T12:18:35.466Z,5.60
2023-12-09T12:21:04.952Z,4.90
2023-12-09T12:23:33.649Z,5.70
2023-12-09T12:26:08.620Z,5.80
2023-12-09T12:28:51.501Z,5.40
2023-12-09T12:31:22.143Z,5.30
2023-12-09T12:33:50.479Z,5.20
2023-12-09T12:36:18.757Z,5.90
2023-12-09T12:38:48.329Z,5.70
2023-12-09T12:41:17.119Z,6.40
2023-12-09T12:43:45.090Z,5.80
2023-12-09T12:46:13.354Z,6.20
2023-12-09T12:48:53.236Z,5.30
2023-12-09T12:51:44.530Z,5.60
2023-12-09T12:54:18.497Z,5.40
2023-12-09T12:56:46.618Z,5.90
2023-12-09T12:59:14.865Z,5.60
2023-12-09T13:01:43.985Z,6.10
2023-12-09T13:04:12.075Z,5.80
2023-12-09T13:06:40.204Z,4.10
2023-12-09T13:09:10.029Z,5.30
2023-12-09T13:11:38.335Z,5.70
2023-12-09T13:14:06.427Z,5.50
2023-12-09T13:16:34.457Z,5.40
2023-12-09T13:19:02.587Z,5.50
2023-12-09T13:21:31.260Z,4.30
2023-12-09T13:23:59.952Z,5.70
2023-12-09T13:26:28.759Z,6.60
2023-12-09T13:28:57.132Z,5.80
2023-12-09T13:31:25.901Z,6.00
2023-12-09T13:33:54.075Z,5.20
2023-12-09T13:36:22.505Z,5.50
2023-12-09T13:38:50.577Z,6.00
2023-12-09T13:41:18.540Z,5.10
2023-12-09T13:43:47.943Z,5.50
2023-12-09T13:46:16.073Z,5.60
2023-12-09T13:48:44.222Z,5.40
2023-12-09T13:51:12.619Z,6.40
2023-12-09T13:53:40.583Z,4.90
2023-12-09T13:56:09.316Z,5.30
2023-12-09T13:58:38.026Z,5.50
2023-12-09T14:01:06.268Z,5.70
2023-12-09T14:03:34.456Z,5.50
2023-12-09T14:06:03.015Z,5.90
2023-12-09T14:08:33.364Z,5.10
2023-12-09T14:11:03.080Z,5.50
2023-12-09T14:13:31.182Z,6.50
2023-12-09T14:15:59.249Z,5.50
2023-12-09T14:18:27.635Z,5.60
2023-12-09T14:20:55.817Z,5.50
2023-12-09T14:23:23.900Z,6.20
2023-12-09T14:25:52.219Z,6.80
2023-12-09T14:28:20.520Z,6.00
2023-12-09T14:30:48.650Z,5.90
2023-12-09T14:33:17.155Z,5.50
2023-12-09T14:35:45.505Z,5.20
2023-12-09T14:38:13.806Z,4.90
2023-12-09T14:40:45.395Z,6.20
2023-12-09T14:43:17.490Z,5.60
2023-12-09T14:45:45.540Z,5.30
2023-12-09T14:48:14.329Z,5.50
2023-12-09T14:50:42.607Z,5.90
2023-12-09T14:53:14.051Z,5.20
2023-12-09T14:55:42.234Z,4.40
2023-12-09T14:58:10.969Z,5.70
2023-12-09T15:00:39.183Z,6.10
2023-12-09T15:03:07.334Z,4.40
2023-12-09T15:05:35.680Z,5.00
2023-12-09T15:08:04.133Z,5.30
2023-12-09T15:10:32.246Z,5.40
2023-12-09T15:13:01.295Z,5.30
2023-12-09T15:15:29.570Z,5.00
2023-12-09T15:17:57.657Z,5.70
2023-12-09T15:20:25.783Z,5.70
2023-12-09T15:22:55.147Z,5.40
2023-12-09T15:25:23.336Z,5.10
2023-12-09T15:27:51.562Z,5.80
2023-12-09T15:30:20.377Z,5.70
2023-12-09T15:32:49.440Z,5.30
2023-12-09T15:35:18.234Z,6.00
2023-12-09T15:37:46.266Z,5.90
2023-12-09T15:40:17.229Z,5.40
2023-12-09T15:42:45.629Z,5.10
2023-12-09T15:45:13.867Z,6.10
2023-12-09T15:47:42.346Z,5.30
2023-12-09T15:50:10.454Z,6.10
2023-12-09T15:52:38.531Z,6.50
2023-12-09T15:55:07.226Z,6.30
2023-12-09T15:57:35.470Z,6.30
2023-12-09T16:00:04.438Z,6.20
2023-12-09T16:02:33.769Z,6.90
2023-12-09T16:05:02.317Z,6.80
2023-12-09T16:07:30.486Z,6.30
2023-12-09T16:09:58.715Z,6.50
2023-12-09T16:12:27.093Z,6.10
2023-12-09T16:14:56.019Z,7.20
2023-12-09T16:17:24.210Z,5.90
2023-12-09T16:19:52.401Z,7.00
2023-12-09T16:22:21.590Z,6.20
2023-12-09T16:24:49.897Z,7.50
2023-12-09T16:27:18.178Z,7.40
2023-12-09T16:29:46.339Z,6.90
2023-12-09T16:32:14.800Z,6.60
2023-12-09T16:34:43.996Z,6.20
2023-12-09T16:37:12.231Z,5.20
2023-12-09T16:39:40.308Z,6.40
2023-12-09T16:42:08.895Z,6.30
2023-12-09T16:44:37.077Z,6.10
2023-12-09T16:47:08.387Z,5.70
2023-12-09T16:49:36.642Z,6.30
2023-12-09T16:52:05.757Z,5.70
2023-12-09T16:54:34.147Z,6.60
2023-12-09T16:57:02.767Z,6.30
2023-12-09T16:59:31.011Z,6.60
2023-12-09T17:02:00.461Z,6.20
2023-12-09T17:04:29.135Z,6.50
2023-12-09T17:07:21.643Z,7.10
2023-12-09T17:10:15.312Z,5.50
2023-12-09T17:12:43.665Z,7.10
2023-12-09T17:15:11.939Z,6.60
2023-12-09T17:17:40.208Z,6.00
2023-12-09T17:20:09.210Z,6.60
2023-12-09T17:22:57.105Z,6.00
2023-12-09T17:25:27.644Z,6.00
2023-12-09T17:28:09.936Z,6.40
2023-12-09T17:30:38.968Z,5.00
2023-12-09T17:33:11.790Z,5.80
2023-12-09T17:35:40.417Z,5.70
2023-12-09T17:38:08.696Z,6.70
2023-12-09T17:43:28.177Z,6.40
2023-12-09T17:45:56.258Z,6.30
2023-12-09T17:48:25.043Z,6.20
2023-12-09T17:50:56.996Z,7.10
2023-12-09T17:53:43.554Z,5.90
2023-12-09T17:56:11.918Z,6.30
2023-12-09T17:58:43.705Z,5.30
2023-12-09T18:01:27.092Z,6.20
2023-12-09T18:04:01.754Z,5.80
2023-12-09T18:06:30.265Z,6.30
2023-12-09T18:08:58.450Z,5.70
2023-12-09T18:11:32.252Z,5.90
2023-12-09T18:14:05.393Z,6.50
2023-12-09T18:16:33.531Z,6.40
2023-12-09T18:19:29.599Z,6.10
2023-12-09T18:22:03.097Z,5.80
2023-12-09T18:24:31.510Z,6.00
2023-12-09T18:27:09.033Z,5.90
2023-12-09T18:29:37.090Z,5.60
2023-12-09T18:32:24.968Z,5.20
2023-12-09T18:34:53.442Z,5.50
2023-12-09T18:37:28.140Z,5.60
2023-12-09T18:39:56.305Z,5.80
2023-12-09T18:42:24.605Z,6.00
2023-12-09T18:45:07.097Z,5.70
2023-12-09T18:47:51.693Z,5.90
2023-12-09T18:50:20.397Z,5.50
2023-12-09T18:52:48.699Z,6.00
2023-12-09T18:55:24.225Z,6.20
2023-12-09T18:57:55.361Z,5.40
2023-12-09T19:00:23.654Z,5.80
2023-12-09T19:02:52.081Z,5.70
2023-12-09T19:05:20.374Z,6.50
2023-12-09T19:07:48.793Z,5.40
2023-12-09T19:10:17.083Z,6.10
2023-12-09T19:12:45.209Z,5.20
2023-12-09T19:16:42.393Z,5.90
2023-12-09T19:20:04.617Z,4.80
2023-12-09T19:31:38.018Z,4.70
2023-12-09T19:34:06.833Z,4.80
2023-12-09T19:36:46.947Z,5.00
2023-12-09T19:39:16.898Z,5.50
2023-12-09T19:41:46.117Z,5.30
2023-12-09T19:44:14.300Z,5.80
2023-12-09T19:46:42.696Z,5.70
2023-12-09T19:49:11.354Z,5.20
2023-12-09T19:51:41.048Z,6.70
2023-12-09T19:54:09.893Z,3.90
2023-12-09T19:56:41.324Z,5.80
2023-12-09T19:59:09.419Z,5.70
2023-12-09T20:01:37.615Z,5.90
2023-12-09T20:04:05.962Z,5.80
2023-12-09T20:06:57.281Z,5.80
2023-12-09T20:09:28.541Z,4.80
2023-12-09T20:12:04.486Z,5.70
2023-12-09T20:14:34.839Z,5.50
2023-12-09T20:17:09.501Z,6.00
2023-12-09T20:19:45.479Z,5.80
2023-12-09T20:22:29.161Z,3.40
2023-12-09T20:24:57.866Z,5.30
2023-12-09T20:27:25.999Z,6.00
2023-12-09T20:29:56.513Z,5.30
2023-12-09T20:32:25.359Z,6.30
2023-12-09T20:34:54.590Z,6.00
2023-12-09T20:37:22.875Z,5.30
2023-12-09T20:39:51.133Z,5.70
2023-12-09T20:42:19.415Z,7.00
2023-12-09T20:44:49.953Z,6.60
2023-12-09T20:47:18.204Z,5.10
2023-12-09T20:49:46.262Z,7.20
2023-12-09T20:52:14.339Z,5.50
2023-12-09T20:54:44.147Z,5.90
2023-12-09T20:57:13.745Z,5.60
2023-12-09T20:59:51.031Z,5.30
2023-12-09T21:02:19.292Z,5.30
2023-12-09T21:04:49.513Z,5.30
2023-12-09T21:07:17.633Z,7.30
2023-12-09T21:09:45.729Z,6.70
2023-12-09T21:12:22.654Z,6.80
2023-12-09T21:17:18.912Z,5.80
2023-12-09T21:19:47.323Z,5.50
2023-12-09T21:22:15.976Z,5.90
2023-12-09T21:24:44.155Z,5.80
2023-12-09T21:27:12.861Z,5.90
2023-12-09T21:29:48.610Z,5.60
2023-12-09T21:32:16.915Z,6.20
2023-12-09T21:34:52.610Z,7.60
2023-12-09T21:37:20.833Z,6.80
2023-12-09T21:39:49.886Z,6.50
2023-12-09T21:42:18.246Z,5.90
2023-12-09T21:44:46.498Z,7.40
2023-12-09T21:47:14.596Z,6.70
2023-12-09T21:49:43.028Z,6.00
2023-12-09T21:52:11.384Z,6.30
2023-12-09T21:54:39.522Z,6.10
2023-12-09T21:57:07.815Z,7.10
2023-12-09T21:59:36.509Z,7.20
2023-12-09T22:02:04.886Z,7.10
2023-12-09T22:04:32.874Z,6.30
2023-12-09T22:07:00.941Z,6.70
2023-12-09T22:09:29.207Z,7.30
2023-12-09T22:11:57.281Z,6.40
2023-12-09T22:14:25.466Z,7.10
2023-12-09T22:16:54.639Z,6.30
2023-12-09T22:19:23.045Z,7.00
2023-12-09T22:21:51.482Z,7.30
2023-12-09T22:24:19.523Z,6.40
2023-12-09T22:26:47.775Z,6.70
2023-12-09T22:29:16.047Z,6.10
2023-12-09T22:31:45.005Z,6.00
2023-12-09T22:34:13.389Z,6.00
2023-12-09T22:36:41.856Z,6.40
2023-12-09T22:39:13.892Z,6.00
2023-12-09T22:41:42.204Z,6.80
2023-12-09T22:44:10.504Z,6.50
2023-12-09T22:46:39.070Z,7.90
2023-12-09T22:49:07.643Z,7.10
2023-12-09T22:51:37.484Z,8.10
2023-12-09T22:54:05.985Z,6.90
2023-12-09T22:56:34.183Z,6.70
2023-12-09T22:59:02.326Z,6.80
2023-12-09T23:01:34.278Z,7.30
2023-12-09T23:04:02.741Z,7.50
2023-12-09T23:06:31.208Z,5.90
2023-12-09T23:08:59.445Z,8.30
2023-12-09T23:11:27.685Z,5.90
2023-12-09T23:13:55.722Z,7.00
2023-12-09T23:16:24.263Z,7.40
2023-12-09T23:18:52.879Z,6.90
2023-12-09T23:21:21.114Z,6.40
2023-12-09T23:23:49.570Z,6.50
2023-12-09T23:26:17.891Z,6.30
2023-12-09T23:28:46.101Z,6.00
2023-12-09T23:31:16.486Z,6.80
2023-12-09T23:33:48.285Z,5.70
2023-12-09T23:36:16.951Z,7.10
2023-12-09T23:38:45.135Z,6.70
2023-12-09T23:41:16.321Z,6.10
2023-12-09T23:43:44.664Z,6.30
2023-12-09T23:46:17.408Z,7.50
2023-12-09T23:48:45.689Z,6.20
2023-12-09T23:51:13.980Z,6.70
2023-12-09T23:53:42.104Z,8.50
2023-12-09T23:56:10.571Z,8.20
2023-12-09T23:58:39.121Z,7.40
